createdAt,value
2018-01-19T00:00:07.247Z,0
2018-01-19T00:01:28.838Z,0
2018-01-19T00:02:50.696Z,0
2018-01-19T00:04:12.294Z,0
2018-01-19T00:05:34.219Z,0
2018-01-19T00:06:56.324Z,0
2018-01-19T00:08:18.213Z,0
2018-01-19T00:09:40.136Z,0
2018-01-19T00:11:01.992Z,0
2018-01-19T00:12:23.320Z,0
2018-01-19T00:13:44.953Z,0
2018-01-19T00:15:06.800Z,0
2018-01-19T00:16:28.651Z,0
2018-01-19T00:17:50.501Z,0
2018-01-19T00:19:12.356Z,0
2018-01-19T00:20:34.267Z,0
2018-01-19T00:21:55.666Z,0
2018-01-19T00:23:18.011Z,0
2018-01-19T00:24:39.855Z,0
2018-01-19T00:26:02.079Z,0
2018-01-19T00:27:23.698Z,0
2018-01-19T00:28:45.581Z,0
2018-01-19T00:30:07.426Z,0
2018-01-19T00:31:28.763Z,0
2018-01-19T00:32:50.077Z,0
2018-01-19T00:34:12.241Z,0
2018-01-19T00:35:33.424Z,0
2018-01-19T00:36:55.080Z,0
2018-01-19T00:38:16.148Z,0
2018-01-19T00:39:38.020Z,0
2018-01-19T00:40:59.875Z,0
2018-01-19T00:42:21.857Z,0
2018-01-19T00:43:43.784Z,0
2018-01-19T00:45:05.895Z,0
2018-01-19T00:46:27.866Z,0
2018-01-19T00:47:49.991Z,0
2018-01-19T00:49:11.889Z,0
2018-01-19T00:50:33.398Z,0
2018-01-19T00:51:55.241Z,0
2018-01-19T00:53:17.037Z,0
2018-01-19T00:54:38.642Z,0
2018-01-19T00:56:00.762Z,0
2018-01-19T00:57:22.700Z,0
2018-01-19T00:58:44.304Z,0
2018-01-19T01:00:06.455Z,0
2018-01-19T01:01:28.592Z,0
2018-01-19T01:02:50.442Z,0
2018-01-19T01:04:12.292Z,0
2018-01-19T01:05:34.191Z,0
2018-01-19T01:06:56.449Z,0
2018-01-19T01:08:18.772Z,0
2018-01-19T01:09:40.793Z,0
2018-01-19T01:11:02.902Z,0
2018-01-19T01:12:24.852Z,0
2018-01-19T01:13:46.444Z,0
2018-01-19T01:15:08.294Z,0
2018-01-19T01:16:30.171Z,0
2018-01-19T01:17:52.245Z,0
2018-01-19T01:19:14.434Z,0
2018-01-19T01:20:36.322Z,0
2018-01-19T01:21:58.089Z,0
2018-01-19T01:23:19.419Z,0
2018-01-19T01:24:41.255Z,0
2018-01-19T01:26:02.841Z,0
2018-01-19T01:27:25.020Z,0
2018-01-19T01:28:46.093Z,0
2018-01-19T01:30:08.286Z,0
2018-01-19T01:31:30.242Z,0
2018-01-19T01:32:51.587Z,0
2018-01-19T01:34:13.450Z,0
2018-01-19T01:35:35.054Z,0
2018-01-19T01:36:56.912Z,0
2018-01-19T01:38:18.770Z,0
2018-01-19T01:39:40.755Z,0
2018-01-19T01:41:02.342Z,0
2018-01-19T01:42:24.052Z,0
2018-01-19T01:43:46.051Z,0
2018-01-19T01:45:07.388Z,0
2018-01-19T01:46:29.230Z,0
2018-01-19T01:47:51.452Z,0
2018-01-19T01:49:13.047Z,0
2018-01-19T01:50:34.937Z,0
2018-01-19T01:51:56.795Z,0
2018-01-19T01:53:18.445Z,0
2018-01-19T01:54:40.031Z,0
2018-01-19T01:56:01.889Z,0
2018-01-19T01:57:23.758Z,0
2018-01-19T01:58:45.878Z,0
2018-01-19T02:00:07.460Z,0
2018-01-19T02:01:29.120Z,0
2018-01-19T02:02:51.412Z,0
2018-01-19T02:04:13.119Z,0
2018-01-19T02:05:34.991Z,0
2018-01-19T02:06:56.690Z,0
2018-01-19T02:08:18.613Z,0
2018-01-19T02:09:40.717Z,0
2018-01-19T02:11:02.743Z,0
2018-01-19T02:12:24.932Z,0
2018-01-19T02:13:46.783Z,0
2018-01-19T02:15:08.904Z,0
2018-01-19T02:16:31.107Z,0
2018-01-19T02:17:53.053Z,0
2018-01-19T02:19:14.903Z,0
2018-01-19T02:20:36.314Z,0
2018-01-19T02:21:58.202Z,0
2018-01-19T02:23:19.825Z,0
2018-01-19T02:24:41.431Z,0
2018-01-19T02:26:03.633Z,0
2018-01-19T02:27:25.494Z,0
2018-01-19T02:28:47.074Z,0
2018-01-19T02:30:08.695Z,0
2018-01-19T02:31:30.292Z,0
2018-01-19T02:32:52.428Z,0
2018-01-19T02:34:14.158Z,0
2018-01-19T02:35:35.737Z,0
2018-01-19T02:36:57.332Z,0
2018-01-19T02:38:18.912Z,0
2018-01-19T02:39:40.802Z,0
2018-01-19T02:41:02.713Z,0
2018-01-19T02:42:24.396Z,0
2018-01-19T02:43:46.268Z,0
2018-01-19T02:45:08.174Z,0
2018-01-19T02:46:30.102Z,0
2018-01-19T02:47:51.679Z,0
2018-01-19T02:49:12.741Z,0
2018-01-19T02:50:34.262Z,0
2018-01-19T02:51:56.207Z,0
2018-01-19T02:53:17.271Z,0
2018-01-19T02:54:39.365Z,0
2018-01-19T02:56:01.213Z,0
2018-01-19T02:57:22.895Z,0
2018-01-19T02:58:44.735Z,0
2018-01-19T03:00:06.833Z,0
2018-01-19T03:01:28.727Z,0
2018-01-19T03:02:50.670Z,0
2018-01-19T03:04:12.780Z,0
2018-01-19T03:05:34.479Z,0
2018-01-19T03:06:56.619Z,0
2018-01-19T03:08:18.197Z,0
2018-01-19T03:09:39.618Z,0
2018-01-19T03:11:00.745Z,0
2018-01-19T03:12:22.068Z,0
2018-01-19T03:13:43.696Z,0
2018-01-19T03:15:05.713Z,0
2018-01-19T03:16:27.035Z,0
2018-01-19T03:17:48.924Z,0
2018-01-19T03:19:10.001Z,0
2018-01-19T03:20:31.593Z,0
2018-01-19T03:21:53.453Z,0
2018-01-19T03:23:15.128Z,0
2018-01-19T03:24:36.728Z,0
2018-01-19T03:25:58.876Z,0
2018-01-19T03:27:20.734Z,0
2018-01-19T03:28:42.634Z,0
2018-01-19T03:30:04.020Z,0
2018-01-19T03:31:25.899Z,0
2018-01-19T03:32:48.025Z,0
2018-01-19T03:34:09.619Z,0
2018-01-19T03:35:31.480Z,0
2018-01-19T03:36:53.099Z,0
2018-01-19T03:38:14.702Z,0
2018-01-19T03:39:36.034Z,0
2018-01-19T03:40:57.682Z,0
2018-01-19T03:42:18.993Z,0
2018-01-19T03:43:40.830Z,0
2018-01-19T03:45:02.680Z,0
2018-01-19T03:46:24.252Z,0
2018-01-19T03:47:46.106Z,0
2018-01-19T03:49:08.086Z,0
2018-01-19T03:50:29.936Z,0
2018-01-19T03:51:51.528Z,0
2018-01-19T03:53:13.414Z,0
2018-01-19T03:54:35.540Z,0
2018-01-19T03:55:56.932Z,0
2018-01-19T03:57:18.515Z,0
2018-01-19T03:58:40.602Z,0
2018-01-19T04:00:01.954Z,0
2018-01-19T04:01:24.163Z,0
2018-01-19T04:02:45.746Z,0
2018-01-19T04:04:07.603Z,0
2018-01-19T04:05:29.710Z,0
2018-01-19T04:06:51.397Z,0
2018-01-19T04:08:13.044Z,0
2018-01-19T04:09:34.387Z,0
2018-01-19T04:10:56.228Z,0
2018-01-19T04:12:18.074Z,0
2018-01-19T04:13:40.041Z,0
2018-01-19T04:15:02.184Z,0
2018-01-19T04:16:23.536Z,0
2018-01-19T04:17:45.652Z,0
2018-01-19T04:19:07.252Z,0
2018-01-19T04:20:29.378Z,0
2018-01-19T04:21:51.492Z,0
2018-01-19T04:23:13.787Z,0
2018-01-19T04:24:35.112Z,0
2018-01-19T04:25:56.942Z,0
2018-01-19T04:27:18.812Z,0
2018-01-19T04:28:40.647Z,0
2018-01-19T04:30:02.489Z,0
2018-01-19T04:31:24.343Z,0
2018-01-19T04:32:45.679Z,0
2018-01-19T04:34:07.391Z,0
2018-01-19T04:35:28.999Z,0
2018-01-19T04:36:50.857Z,0
2018-01-19T04:38:12.273Z,0
2018-01-19T04:39:34.131Z,0
2018-01-19T04:40:56.023Z,0
2018-01-19T04:42:17.353Z,0
2018-01-19T04:43:39.454Z,0
2018-01-19T04:45:01.296Z,0
2018-01-19T04:46:23.424Z,0
2018-01-19T04:47:45.555Z,0
2018-01-19T04:49:07.033Z,0
2018-01-19T04:50:28.381Z,0
2018-01-19T04:51:49.961Z,0
2018-01-19T04:53:11.132Z,0
2018-01-19T04:54:32.975Z,0
2018-01-19T04:55:55.076Z,0
2018-01-19T04:57:16.148Z,0
2018-01-19T04:58:38.327Z,0
2018-01-19T05:00:00.209Z,0
2018-01-19T05:01:22.068Z,0
2018-01-19T05:02:44.208Z,0
2018-01-19T05:04:06.071Z,0
2018-01-19T05:05:27.761Z,0
2018-01-19T05:06:49.706Z,0
2018-01-19T05:08:11.543Z,0
2018-01-19T05:09:33.650Z,0
2018-01-19T05:10:55.586Z,0
2018-01-19T05:12:17.290Z,0
2018-01-19T05:13:39.582Z,0
2018-01-19T05:15:01.202Z,0
2018-01-19T05:16:23.400Z,0
2018-01-19T05:17:45.004Z,0
2018-01-19T05:19:06.895Z,0
2018-01-19T05:20:28.500Z,0
2018-01-19T05:21:50.182Z,0
2018-01-19T05:23:11.790Z,0
2018-01-19T05:24:33.997Z,0
2018-01-19T05:25:55.692Z,0
2018-01-19T05:27:17.782Z,0
2018-01-19T05:28:39.391Z,0
2018-01-19T05:30:01.262Z,0
2018-01-19T05:31:23.144Z,0
2018-01-19T05:32:44.983Z,0
2018-01-19T05:34:06.816Z,0
2018-01-19T05:35:28.423Z,0
2018-01-19T05:36:50.302Z,0
2018-01-19T05:38:11.759Z,0
2018-01-19T05:39:33.378Z,0
2018-01-19T05:40:55.123Z,0
2018-01-19T05:42:17.282Z,0
2018-01-19T05:43:38.864Z,0
2018-01-19T05:45:00.820Z,0
2018-01-19T05:46:22.612Z,0
2018-01-19T05:47:44.789Z,0
2018-01-19T05:49:06.922Z,0
2018-01-19T05:50:28.752Z,0
2018-01-19T05:51:50.352Z,0
2018-01-19T05:53:11.942Z,0
2018-01-19T05:54:34.073Z,0
2018-01-19T05:55:55.715Z,0
2018-01-19T05:57:17.071Z,0
2018-01-19T05:58:38.749Z,0
2018-01-19T06:00:00.364Z,0
2018-01-19T06:01:22.503Z,0
2018-01-19T06:02:44.462Z,0
2018-01-19T06:04:06.385Z,0
2018-01-19T06:05:28.654Z,0
2018-01-19T06:06:50.243Z,0
2018-01-19T06:08:12.102Z,0
2018-01-19T06:09:33.962Z,0
2018-01-19T06:10:55.823Z,0
2018-01-19T06:12:18.005Z,0
2018-01-19T06:13:40.219Z,0
2018-01-19T06:15:02.152Z,0
2018-01-19T06:16:24.031Z,0
2018-01-19T06:17:46.103Z,0
2018-01-19T06:19:08.230Z,0
2018-01-19T06:20:30.174Z,0
2018-01-19T06:21:51.903Z,0
2018-01-19T06:23:13.782Z,0
2018-01-19T06:24:35.774Z,0
2018-01-19T06:25:57.362Z,0
2018-01-19T06:27:19.218Z,0
2018-01-19T06:28:41.399Z,0
2018-01-19T06:30:03.396Z,0
2018-01-19T06:31:25.625Z,0
2018-01-19T06:32:47.077Z,0
2018-01-19T06:34:08.696Z,0
2018-01-19T06:35:30.573Z,0
2018-01-19T06:36:52.435Z,0
2018-01-19T06:38:14.589Z,0
2018-01-19T06:39:36.491Z,0
2018-01-19T06:40:58.614Z,0
2018-01-19T06:42:20.757Z,0
2018-01-19T06:43:42.889Z,0
2018-01-19T06:45:04.515Z,0
2018-01-19T06:46:26.380Z,0
2018-01-19T06:47:48.221Z,0
2018-01-19T06:49:10.065Z,0
2018-01-19T06:50:32.209Z,0
2018-01-19T06:51:54.370Z,0
2018-01-19T06:53:16.369Z,0
2018-01-19T06:54:38.073Z,0
2018-01-19T06:55:59.732Z,0
2018-01-19T06:57:21.609Z,0
2018-01-19T06:58:43.531Z,0
2018-01-19T07:00:05.426Z,0
2018-01-19T07:01:27.103Z,0
2018-01-19T07:02:48.741Z,0
2018-01-19T07:04:10.122Z,0
2018-01-19T07:05:32.011Z,0
2018-01-19T07:06:53.860Z,0
2018-01-19T07:08:16.017Z,0
2018-01-19T07:09:38.110Z,0
2018-01-19T07:11:00.031Z,0
2018-01-19T07:12:22.143Z,0
2018-01-19T07:13:43.743Z,0
2018-01-19T07:15:05.406Z,0
2018-01-19T07:16:27.278Z,0
2018-01-19T07:17:49.441Z,0
2018-01-19T07:19:11.089Z,0
2018-01-19T07:20:32.501Z,0
2018-01-19T07:21:54.626Z,0
2018-01-19T07:23:16.753Z,0
2018-01-19T07:24:38.594Z,0
2018-01-19T07:26:00.556Z,0
2018-01-19T07:27:22.438Z,0
2018-01-19T07:28:43.774Z,0
2018-01-19T07:30:05.406Z,5
2018-01-19T07:31:27.006Z,5
2018-01-19T07:32:48.600Z,5
2018-01-19T07:34:10.206Z,5
2018-01-19T07:35:32.326Z,5
2018-01-19T07:36:54.433Z,5
2018-01-19T07:38:16.020Z,5
2018-01-19T07:39:37.923Z,5
2018-01-19T07:40:59.263Z,5
2018-01-19T07:42:21.110Z,5
2018-01-19T07:43:42.463Z,5
2018-01-19T07:45:04.312Z,10
2018-01-19T07:46:25.902Z,5
2018-01-19T07:47:47.640Z,5
2018-01-19T07:49:09.518Z,10
2018-01-19T07:50:31.628Z,10
2018-01-19T07:51:53.542Z,10
2018-01-19T07:53:15.433Z,10
2018-01-19T07:54:37.289Z,10
2018-01-19T07:55:59.463Z,10
2018-01-19T07:57:21.409Z,10
2018-01-19T07:58:43.365Z,15
2018-01-19T08:00:05.273Z,15
2018-01-19T08:01:27.017Z,15
2018-01-19T08:02:49.214Z,15
2018-01-19T08:04:11.306Z,15
2018-01-19T08:05:33.402Z,15
2018-01-19T08:06:55.006Z,15
2018-01-19T08:08:16.598Z,20
2018-01-19T08:09:38.294Z,20
2018-01-19T08:11:00.412Z,15
2018-01-19T08:12:22.012Z,20
2018-01-19T08:13:44.137Z,25
2018-01-19T08:15:05.464Z,20
2018-01-19T08:16:27.327Z,20
2018-01-19T08:17:49.462Z,20
2018-01-19T08:19:11.330Z,25
2018-01-19T08:20:33.643Z,25
2018-01-19T08:21:55.759Z,25
2018-01-19T08:23:17.877Z,30
2018-01-19T08:24:39.580Z,30
2018-01-19T08:26:01.434Z,30
2018-01-19T08:27:23.463Z,30
2018-01-19T08:28:45.112Z,40
2018-01-19T08:30:07.360Z,40
2018-01-19T08:31:29.116Z,40
2018-01-19T08:32:50.819Z,35
2018-01-19T08:34:12.694Z,40
2018-01-19T08:35:34.606Z,40
2018-01-19T08:36:56.472Z,50
2018-01-19T08:38:18.628Z,45
2018-01-19T08:39:40.742Z,45
2018-01-19T08:41:02.356Z,45
2018-01-19T08:42:24.306Z,40
2018-01-19T08:43:46.254Z,40
2018-01-19T08:45:08.386Z,40
2018-01-19T08:46:30.545Z,45
2018-01-19T08:47:52.875Z,50
2018-01-19T08:49:14.788Z,50
2018-01-19T08:50:36.686Z,45
2018-01-19T08:51:58.829Z,50
2018-01-19T08:53:20.708Z,45
2018-01-19T08:54:43.046Z,50
2018-01-19T08:56:04.918Z,50
2018-01-19T08:57:26.261Z,65
2018-01-19T08:58:48.125Z,65
2018-01-19T09:00:10.200Z,65
2018-01-19T09:01:32.042Z,55
2018-01-19T09:02:53.903Z,50
2018-01-19T09:04:16.011Z,45
2018-01-19T09:05:38.121Z,35
2018-01-19T09:06:59.985Z,45
2018-01-19T09:08:21.410Z,55
2018-01-19T09:09:43.281Z,70
2018-01-19T09:11:05.441Z,60
2018-01-19T09:12:27.290Z,60
2018-01-19T09:13:48.902Z,60
2018-01-19T09:15:10.806Z,55
2018-01-19T09:16:32.246Z,50
2018-01-19T09:17:54.382Z,50
2018-01-19T09:19:16.406Z,50
2018-01-19T09:20:38.282Z,50
2018-01-19T09:22:00.187Z,45
2018-01-19T09:23:22.140Z,40
2018-01-19T09:24:43.735Z,40
2018-01-19T09:26:05.092Z,45
2018-01-19T09:27:27.246Z,55
2018-01-19T09:28:49.183Z,60
2018-01-19T09:30:11.327Z,80
2018-01-19T09:31:33.202Z,85
2018-01-19T09:32:54.610Z,75
2018-01-19T09:34:16.244Z,80
2018-01-19T09:35:38.375Z,75
2018-01-19T09:37:00.602Z,75
2018-01-19T09:38:22.535Z,85
2018-01-19T09:39:44.411Z,85
2018-01-19T09:41:06.511Z,80
2018-01-19T09:42:28.116Z,100
2018-01-19T09:43:50.062Z,85
2018-01-19T09:45:11.932Z,85
2018-01-19T09:46:33.268Z,70
2018-01-19T09:47:55.480Z,60
2018-01-19T09:49:17.422Z,55
2018-01-19T09:50:39.573Z,60
2018-01-19T09:52:01.186Z,60
2018-01-19T09:53:23.038Z,55
2018-01-19T09:54:45.058Z,50
2018-01-19T09:56:07.594Z,50
2018-01-19T09:57:29.443Z,50
2018-01-19T09:58:51.716Z,55
2018-01-19T10:00:13.560Z,50
2018-01-19T10:01:35.234Z,45
2018-01-19T10:02:57.096Z,45
2018-01-19T10:04:19.285Z,45
2018-01-19T10:05:41.156Z,50
2018-01-19T10:07:03.064Z,50
2018-01-19T10:08:24.666Z,50
2018-01-19T10:09:46.972Z,55
2018-01-19T10:11:08.834Z,55
2018-01-19T10:12:30.313Z,50
2018-01-19T10:13:52.494Z,50
2018-01-19T10:15:14.592Z,45
2018-01-19T10:16:36.513Z,40
2018-01-19T10:17:58.374Z,45
2018-01-19T10:19:20.024Z,55
2018-01-19T10:20:42.268Z,55
2018-01-19T10:22:03.847Z,55
2018-01-19T10:23:25.856Z,50
2018-01-19T10:24:47.797Z,55
2018-01-19T10:26:09.752Z,60
2018-01-19T10:27:31.883Z,60
2018-01-19T10:28:53.843Z,55
2018-01-19T10:30:16.047Z,40
2018-01-19T10:31:37.902Z,35
2018-01-19T10:33:00.057Z,30
2018-01-19T10:34:21.662Z,30
2018-01-19T10:35:43.534Z,40
2018-01-19T10:37:05.390Z,45
2018-01-19T10:38:27.246Z,55
2018-01-19T10:39:49.399Z,60
2018-01-19T10:41:11.522Z,60
2018-01-19T10:42:33.512Z,65
2018-01-19T10:43:55.391Z,50
2018-01-19T10:45:16.719Z,55
2018-01-19T10:46:38.939Z,55
2018-01-19T10:48:00.572Z,50
2018-01-19T10:49:22.494Z,60
2018-01-19T10:50:44.759Z,65
2018-01-19T10:52:06.868Z,65
2018-01-19T10:53:28.729Z,65
2018-01-19T10:54:50.935Z,80
2018-01-19T10:56:12.621Z,75
2018-01-19T10:57:34.574Z,70
2018-01-19T10:58:56.828Z,65
2018-01-19T11:00:18.994Z,70
2018-01-19T11:01:40.873Z,75
2018-01-19T11:03:02.261Z,55
2018-01-19T11:04:24.469Z,60
2018-01-19T11:05:46.605Z,75
2018-01-19T11:07:08.199Z,80
2018-01-19T11:08:30.358Z,90
2018-01-19T11:09:53.031Z,100
2018-01-19T11:11:14.901Z,105
2018-01-19T11:12:36.744Z,100
2018-01-19T11:13:58.336Z,100
2018-01-19T11:15:20.557Z,100
2018-01-19T11:16:42.490Z,100
2018-01-19T11:18:04.595Z,130
2018-01-19T11:19:26.722Z,130
2018-01-19T11:20:48.675Z,125
2018-01-19T11:22:10.831Z,95
2018-01-19T11:23:33.021Z,75
2018-01-19T11:24:55.013Z,55
2018-01-19T11:26:16.883Z,50
2018-01-19T11:27:38.514Z,45
2018-01-19T11:29:00.626Z,45
2018-01-19T11:30:22.809Z,50
2018-01-19T11:31:44.584Z,55
2018-01-19T11:33:06.518Z,65
2018-01-19T11:34:28.627Z,100
2018-01-19T11:35:50.234Z,110
2018-01-19T11:37:11.841Z,105
2018-01-19T11:38:33.452Z,95
2018-01-19T11:39:55.316Z,100
2018-01-19T11:41:17.485Z,120
2018-01-19T11:42:39.617Z,130
2018-01-19T11:44:01.849Z,110
2018-01-19T11:45:23.183Z,100
2018-01-19T11:46:45.338Z,90
2018-01-19T11:48:07.211Z,95
2018-01-19T11:49:29.340Z,110
2018-01-19T11:50:51.483Z,120
2018-01-19T11:52:13.385Z,110
2018-01-19T11:53:35.510Z,90
2018-01-19T11:54:57.644Z,95
2018-01-19T11:56:19.583Z,105
2018-01-19T11:57:41.501Z,105
2018-01-19T11:59:03.614Z,110
2018-01-19T12:00:25.465Z,105
2018-01-19T12:01:47.733Z,100
2018-01-19T12:03:09.673Z,65
2018-01-19T12:04:31.536Z,80
2018-01-19T12:05:53.414Z,110
2018-01-19T12:07:15.592Z,100
2018-01-19T12:08:37.217Z,70
2018-01-19T12:09:58.934Z,60
2018-01-19T12:11:20.833Z,75
2018-01-19T12:12:43.000Z,100
2018-01-19T12:14:04.855Z,105
2018-01-19T12:15:27.050Z,105
2018-01-19T12:16:49.171Z,110
2018-01-19T12:18:11.290Z,105
2018-01-19T12:19:32.900Z,120
2018-01-19T12:20:55.003Z,120
2018-01-19T12:22:16.873Z,100
2018-01-19T12:23:38.742Z,85
2018-01-19T12:25:00.228Z,95
2018-01-19T12:26:22.183Z,85
2018-01-19T12:27:44.056Z,100
2018-01-19T12:29:06.184Z,85
2018-01-19T12:30:28.203Z,85
2018-01-19T12:31:49.801Z,100
2018-01-19T12:33:11.687Z,105
2018-01-19T12:34:33.552Z,110
2018-01-19T12:35:55.175Z,110
2018-01-19T12:37:17.178Z,120
2018-01-19T12:38:39.338Z,130
2018-01-19T12:40:01.004Z,135
2018-01-19T12:41:22.454Z,145
2018-01-19T12:42:44.342Z,145
2018-01-19T12:44:06.263Z,135
2018-01-19T12:45:28.425Z,130
2018-01-19T12:46:50.559Z,135
2018-01-19T12:48:12.157Z,145
2018-01-19T12:49:34.335Z,160
2018-01-19T12:50:56.247Z,150
2018-01-19T12:52:18.501Z,155
2018-01-19T12:53:40.386Z,135
2018-01-19T12:55:02.540Z,130
2018-01-19T12:56:24.149Z,130
2018-01-19T12:57:46.065Z,130
2018-01-19T12:59:08.296Z,130
2018-01-19T13:00:29.932Z,125
2018-01-19T13:01:52.172Z,130
2018-01-19T13:03:14.374Z,135
2018-01-19T13:04:36.247Z,140
2018-01-19T13:05:58.411Z,140
2018-01-19T13:07:20.354Z,130
2018-01-19T13:08:41.970Z,125
2018-01-19T13:10:03.842Z,130
2018-01-19T13:11:25.997Z,115
2018-01-19T13:12:47.758Z,105
2018-01-19T13:14:09.374Z,105
2018-01-19T13:15:31.282Z,105
2018-01-19T13:16:53.184Z,90
2018-01-19T13:18:15.483Z,80
2018-01-19T13:19:37.485Z,75
2018-01-19T13:20:59.444Z,75
2018-01-19T13:22:21.368Z,95
2018-01-19T13:23:43.440Z,95
2018-01-19T13:25:05.438Z,70
2018-01-19T13:26:27.562Z,75
2018-01-19T13:27:49.709Z,65
2018-01-19T13:29:11.320Z,75
2018-01-19T13:30:32.674Z,100
2018-01-19T13:31:54.546Z,85
2018-01-19T13:33:16.456Z,95
2018-01-19T13:34:38.630Z,105
2018-01-19T13:36:00.241Z,110
2018-01-19T13:37:22.158Z,110
2018-01-19T13:38:43.915Z,110
2018-01-19T13:40:05.817Z,110
2018-01-19T13:41:27.713Z,110
2018-01-19T13:42:49.342Z,115
2018-01-19T13:44:11.516Z,110
2018-01-19T13:45:33.388Z,110
2018-01-19T13:46:55.576Z,105
2018-01-19T13:48:17.604Z,100
2018-01-19T13:49:39.443Z,100
2018-01-19T13:51:01.612Z,100
2018-01-19T13:52:23.777Z,100
2018-01-19T13:53:45.914Z,95
2018-01-19T13:55:08.145Z,100
2018-01-19T13:56:30.344Z,100
2018-01-19T13:57:52.513Z,105
2018-01-19T13:59:14.653Z,100
2018-01-19T14:00:36.810Z,100
2018-01-19T14:01:58.684Z,100
2018-01-19T14:03:20.803Z,95
2018-01-19T14:04:42.953Z,90
2018-01-19T14:06:04.573Z,90
2018-01-19T14:07:26.739Z,95
2018-01-19T14:08:48.656Z,95
2018-01-19T14:10:10.618Z,90
2018-01-19T14:11:32.573Z,80
2018-01-19T14:12:54.744Z,80
2018-01-19T14:14:16.602Z,75
2018-01-19T14:15:38.270Z,75
2018-01-19T14:16:59.905Z,80
2018-01-19T14:18:21.816Z,80
2018-01-19T14:19:43.953Z,80
2018-01-19T14:21:05.929Z,85
2018-01-19T14:22:27.605Z,80
2018-01-19T14:23:49.498Z,80
2018-01-19T14:25:11.688Z,75
2018-01-19T14:26:33.581Z,75
2018-01-19T14:27:54.986Z,75
2018-01-19T14:29:17.134Z,70
2018-01-19T14:30:39.325Z,65
2018-01-19T14:32:01.283Z,65
2018-01-19T14:33:23.252Z,60
2018-01-19T14:34:45.200Z,60
2018-01-19T14:36:07.553Z,55
2018-01-19T14:37:29.511Z,45
2018-01-19T14:38:51.427Z,35
2018-01-19T14:40:13.584Z,30
2018-01-19T14:41:35.726Z,40
2018-01-19T14:42:57.680Z,45
2018-01-19T14:44:19.557Z,45
2018-01-19T14:45:41.766Z,45
2018-01-19T14:47:03.868Z,45
2018-01-19T14:48:26.018Z,40
2018-01-19T14:49:48.148Z,40
2018-01-19T14:51:09.743Z,35
2018-01-19T14:52:31.995Z,30
2018-01-19T14:53:53.853Z,30
2018-01-19T14:55:15.542Z,30
2018-01-19T14:56:37.472Z,30
2018-01-19T14:57:59.438Z,25
2018-01-19T14:59:21.675Z,25
2018-01-19T15:00:43.282Z,20
2018-01-19T15:02:05.439Z,20
2018-01-19T15:03:27.568Z,20
2018-01-19T15:04:49.450Z,20
2018-01-19T15:06:11.341Z,20
2018-01-19T15:07:32.950Z,15
2018-01-19T15:08:55.050Z,15
2018-01-19T15:10:16.786Z,15
2018-01-19T15:11:38.166Z,15
2018-01-19T15:13:00.325Z,15
2018-01-19T15:14:22.558Z,15
2018-01-19T15:15:44.693Z,15
2018-01-19T15:17:06.595Z,10
2018-01-19T15:18:28.804Z,10
2018-01-19T15:19:50.667Z,5
2018-01-19T15:21:12.304Z,5
2018-01-19T15:22:34.184Z,5
2018-01-19T15:23:56.386Z,5
2018-01-19T15:25:18.297Z,5
2018-01-19T15:26:40.144Z,5
2018-01-19T15:28:02.270Z,10
2018-01-19T15:29:24.189Z,10
2018-01-19T15:30:46.136Z,10
2018-01-19T15:32:08.289Z,10
2018-01-19T15:33:29.646Z,10
2018-01-19T15:34:51.585Z,5
2018-01-19T15:36:13.728Z,5
2018-01-19T15:37:35.620Z,5
2018-01-19T15:38:57.514Z,5
2018-01-19T15:40:18.934Z,5
2018-01-19T15:41:40.816Z,5
2018-01-19T15:43:03.112Z,5
2018-01-19T15:44:25.024Z,5
2018-01-19T15:45:47.157Z,0
2018-01-19T15:47:09.087Z,0
2018-01-19T15:48:31.253Z,0
2018-01-19T15:49:53.398Z,0
2018-01-19T15:51:15.541Z,0
2018-01-19T15:52:37.486Z,0
2018-01-19T15:53:59.634Z,0
2018-01-19T15:55:21.515Z,0
2018-01-19T15:56:43.471Z,0
2018-01-19T15:58:05.613Z,0
2018-01-19T15:59:27.861Z,0
2018-01-19T16:00:50.125Z,0
2018-01-19T16:02:12.005Z,0
2018-01-19T16:03:34.143Z,0
2018-01-19T16:04:56.120Z,0
2018-01-19T16:06:18.433Z,0
2018-01-19T16:07:40.634Z,0
2018-01-19T16:09:02.787Z,0
2018-01-19T16:10:24.892Z,0
2018-01-19T16:11:46.758Z,0
2018-01-19T16:13:08.633Z,0
2018-01-19T16:14:31.088Z,0
2018-01-19T16:15:52.732Z,0
2018-01-19T16:17:14.866Z,0
2018-01-19T16:18:36.995Z,0
2018-01-19T16:19:58.640Z,0
2018-01-19T16:21:20.506Z,0
2018-01-19T16:22:43.043Z,0
2018-01-19T16:24:05.187Z,0
2018-01-19T16:25:27.390Z,0
2018-01-19T16:26:49.618Z,0
2018-01-19T16:28:11.510Z,0
2018-01-19T16:29:33.384Z,0
2018-01-19T16:30:55.023Z,0
2018-01-19T16:32:16.967Z,0
2018-01-19T16:33:38.874Z,0
2018-01-19T16:35:00.556Z,0
2018-01-19T16:36:22.177Z,0
2018-01-19T16:37:44.408Z,0
2018-01-19T16:39:06.292Z,0
2018-01-19T16:40:28.223Z,0
2018-01-19T16:41:50.288Z,0
2018-01-19T16:43:12.172Z,0
2018-01-19T16:44:34.106Z,0
2018-01-19T16:45:56.004Z,0
2018-01-19T16:47:17.952Z,0
2018-01-19T16:48:39.851Z,0
2018-01-19T16:50:01.765Z,0
2018-01-19T16:51:24.062Z,0
2018-01-19T16:52:46.098Z,0
2018-01-19T16:54:07.773Z,0
2018-01-19T16:55:29.919Z,0
2018-01-19T16:56:51.680Z,0
2018-01-19T16:58:13.605Z,0
2018-01-19T16:59:35.771Z,0
2018-01-19T17:00:58.116Z,0
2018-01-19T17:02:20.267Z,0
2018-01-19T17:03:42.444Z,0
2018-01-19T17:05:04.592Z,0
2018-01-19T17:06:26.485Z,0
2018-01-19T17:07:48.772Z,0
2018-01-19T17:09:10.665Z,0
2018-01-19T17:10:32.789Z,0
2018-01-19T17:11:54.738Z,0
2018-01-19T17:13:16.636Z,0
2018-01-19T17:14:38.636Z,0
2018-01-19T17:16:00.982Z,0
2018-01-19T17:17:23.208Z,0
2018-01-19T17:18:45.096Z,0
2018-01-19T17:20:07.253Z,0
2018-01-19T17:21:28.646Z,0
2018-01-19T17:22:50.904Z,0
2018-01-19T17:24:12.837Z,0
2018-01-19T17:25:35.132Z,0
2018-01-19T17:26:57.291Z,0
2018-01-19T17:28:19.470Z,0
2018-01-19T17:29:41.109Z,0
2018-01-19T17:31:03.305Z,0
2018-01-19T17:32:25.536Z,0
2018-01-19T17:33:47.704Z,0
2018-01-19T17:35:09.584Z,0
2018-01-19T17:36:31.333Z,0
2018-01-19T17:37:53.246Z,0
2018-01-19T17:39:15.487Z,0
2018-01-19T17:40:37.694Z,0
2018-01-19T17:41:59.308Z,0
2018-01-19T17:43:20.973Z,0
2018-01-19T17:44:42.892Z,0
2018-01-19T17:46:04.922Z,0
2018-01-19T17:47:27.065Z,0
2018-01-19T17:48:48.991Z,0
2018-01-19T17:50:10.938Z,0
2018-01-19T17:51:32.843Z,0
2018-01-19T17:52:54.613Z,0
2018-01-19T17:54:16.497Z,0
2018-01-19T17:55:38.394Z,0
2018-01-19T17:57:00.280Z,0
2018-01-19T17:58:22.243Z,0
2018-01-19T17:59:44.404Z,0
2018-01-19T18:01:06.600Z,0
2018-01-19T18:02:28.502Z,0
2018-01-19T18:03:50.151Z,0
2018-01-19T18:05:12.068Z,0
2018-01-19T18:06:33.977Z,0
2018-01-19T18:07:56.135Z,0
2018-01-19T18:09:18.502Z,0
2018-01-19T18:10:40.411Z,0
2018-01-19T18:12:02.595Z,0
2018-01-19T18:13:24.752Z,0
2018-01-19T18:14:46.984Z,0
2018-01-19T18:16:08.644Z,0
2018-01-19T18:17:30.639Z,0
2018-01-19T18:18:52.859Z,0
2018-01-19T18:20:14.762Z,0
2018-01-19T18:21:36.724Z,0
2018-01-19T18:22:59.013Z,0
2018-01-19T18:24:20.948Z,0
2018-01-19T18:25:42.601Z,0
2018-01-19T18:27:04.794Z,0
2018-01-19T18:28:26.760Z,0
2018-01-19T18:29:48.742Z,0
2018-01-19T18:31:10.971Z,0
2018-01-19T18:32:33.379Z,0
2018-01-19T18:33:55.526Z,0
2018-01-19T18:35:17.268Z,0
2018-01-19T18:36:39.537Z,0
2018-01-19T18:38:01.705Z,0
2018-01-19T18:39:23.579Z,0
2018-01-19T18:40:45.545Z,0
2018-01-19T18:42:07.704Z,0
2018-01-19T18:43:29.893Z,0
2018-01-19T18:44:52.077Z,0
2018-01-19T18:46:14.227Z,0
2018-01-19T18:47:36.364Z,0
2018-01-19T18:48:58.343Z,0
2018-01-19T18:50:20.504Z,0
2018-01-19T18:51:42.163Z,0
2018-01-19T18:53:04.066Z,0
2018-01-19T18:54:25.990Z,0
2018-01-19T18:55:48.355Z,0
2018-01-19T18:57:10.473Z,0
2018-01-19T18:58:32.974Z,0
2018-01-19T18:59:55.260Z,0
2018-01-19T19:01:17.464Z,0
2018-01-19T19:02:39.362Z,0
2018-01-19T19:04:01.655Z,0
2018-01-19T19:05:23.675Z,0
2018-01-19T19:06:45.646Z,0
2018-01-19T19:08:07.827Z,0
2018-01-19T19:09:29.807Z,0
2018-01-19T19:10:52.027Z,0
2018-01-19T19:12:14.318Z,0
2018-01-19T19:13:36.507Z,0
2018-01-19T19:14:58.563Z,0
2018-01-19T19:16:20.608Z,0
2018-01-19T19:17:42.759Z,0
2018-01-19T19:19:04.945Z,0
2018-01-19T19:20:26.842Z,0
2018-01-19T19:21:49.006Z,0
2018-01-19T19:23:11.181Z,0
2018-01-19T19:24:33.503Z,0
2018-01-19T19:25:55.684Z,0
2018-01-19T19:27:17.907Z,0
2018-01-19T19:28:40.146Z,0
2018-01-19T19:30:02.417Z,0
2018-01-19T19:31:24.316Z,0
2018-01-19T19:32:46.615Z,0
2018-01-19T19:34:08.252Z,0
2018-01-19T19:35:29.909Z,0
2018-01-19T19:36:51.927Z,0
2018-01-19T19:38:13.924Z,0
2018-01-19T19:39:35.940Z,0
2018-01-19T19:40:57.916Z,0
2018-01-19T19:42:20.089Z,0
2018-01-19T19:43:42.242Z,0
2018-01-19T19:45:04.217Z,0
2018-01-19T19:46:26.467Z,0
2018-01-19T19:47:48.490Z,0
2018-01-19T19:49:10.705Z,0